sensor_id;sensor_type;location;lat;lon;timestamp;temperature;humidity
13992;DHT22;7070;53.586;9.692;2023-04-24T00:00:15;13.40;79.50
13992;DHT22;7070;53.586;9.692;2023-04-24T00:02:43;13.40;79.50
13992;DHT22;7070;53.586;9.692;2023-04-24T00:05:13;13.30;79.70
13992;DHT22;7070;53.586;9.692;2023-04-24T00:07:40;13.30;79.70
13992;DHT22;7070;53.586;9.692;2023-04-24T00:10:08;13.30;79.80
13992;DHT22;7070;53.586;9.692;2023-04-24T00:12:36;13.30;79.90
13992;DHT22;7070;53.586;9.692;2023-04-24T00:15:03;13.30;80.00
13992;DHT22;7070;53.586;9.692;2023-04-24T00:17:31;13.30;80.00
13992;DHT22;7070;53.586;9.692;2023-04-24T00:19:58;13.20;80.00
13992;DHT22;7070;53.586;9.692;2023-04-24T00:22:25;13.20;80.00
13992;DHT22;7070;53.586;9.692;2023-04-24T00:24:52;13.10;80.10
13992;DHT22;7070;53.586;9.692;2023-04-24T00:27:19;13.10;80.80
13992;DHT22;7070;53.586;9.692;2023-04-24T00:29:46;13.20;80.10
13992;DHT22;7070;53.586;9.692;2023-04-24T00:32:13;13.10;80.10
13992;DHT22;7070;53.586;9.692;2023-04-24T00:34:42;13.10;80.00
13992;DHT22;7070;53.586;9.692;2023-04-24T00:37:09;13.10;80.10
13992;DHT22;7070;53.586;9.692;2023-04-24T00:39:37;13.00;80.00
13992;DHT22;7070;53.586;9.692;2023-04-24T00:42:04;13.10;80.10
13992;DHT22;7070;53.586;9.692;2023-04-24T00:44:32;13.00;79.80
13992;DHT22;7070;53.586;9.692;2023-04-24T00:47:00;12.90;79.80
13992;DHT22;7070;53.586;9.692;2023-04-24T00:49:27;12.90;79.60
13992;DHT22;7070;53.586;9.692;2023-04-24T00:51:55;12.80;79.40
13992;DHT22;7070;53.586;9.692;2023-04-24T00:54:25;12.70;79.40
13992;DHT22;7070;53.586;9.692;2023-04-24T00:56:51;12.60;79.50
13992;DHT22;7070;53.586;9.692;2023-04-24T00:59:19;12.50;79.30
13992;DHT22;7070;53.586;9.692;2023-04-24T01:01:45;12.50;79.40
13992;DHT22;7070;53.586;9.692;2023-04-24T01:04:13;12.30;79.30
13992;DHT22;7070;53.586;9.692;2023-04-24T01:06:43;12.30;79.40
13992;DHT22;7070;53.586;9.692;2023-04-24T01:09:12;12.20;79.50
13992;DHT22;7070;53.586;9.692;2023-04-24T01:11:41;12.10;79.50
13992;DHT22;7070;53.586;9.692;2023-04-24T01:14:08;11.90;79.40
13992;DHT22;7070;53.586;9.692;2023-04-24T01:16:35;11.90;79.70
13992;DHT22;7070;53.586;9.692;2023-04-24T01:19:03;11.80;79.80
13992;DHT22;7070;53.586;9.692;2023-04-24T01:21:33;11.70;79.80
13992;DHT22;7070;53.586;9.692;2023-04-24T01:24:04;11.70;79.80
13992;DHT22;7070;53.586;9.692;2023-04-24T01:26:32;11.60;79.90
13992;DHT22;7070;53.586;9.692;2023-04-24T01:28:59;11.60;80.30
13992;DHT22;7070;53.586;9.692;2023-04-24T01:31:26;11.50;80.50
13992;DHT22;7070;53.586;9.692;2023-04-24T01:33:54;11.50;80.80
13992;DHT22;7070;53.586;9.692;2023-04-24T01:36:21;11.50;81.20
13992;DHT22;7070;53.586;9.692;2023-04-24T01:38:49;11.50;81.40
13992;DHT22;7070;53.586;9.692;2023-04-24T01:41:17;11.50;81.70
13992;DHT22;7070;53.586;9.692;2023-04-24T01:43:44;11.60;81.90
13992;DHT22;7070;53.586;9.692;2023-04-24T01:46:11;11.70;82.10
13992;DHT22;7070;53.586;9.692;2023-04-24T01:48:38;11.70;82.10
13992;DHT22;7070;53.586;9.692;2023-04-24T01:51:04;11.70;82.10
13992;DHT22;7070;53.586;9.692;2023-04-24T01:53:31;11.70;82.10
13992;DHT22;7070;53.586;9.692;2023-04-24T01:55:58;11.80;82.10
13992;DHT22;7070;53.586;9.692;2023-04-24T01:58:27;11.80;82.10
13992;DHT22;7070;53.586;9.692;2023-04-24T02:00:56;11.80;82.10
13992;DHT22;7070;53.586;9.692;2023-04-24T02:03:23;11.80;82.10
13992;DHT22;7070;53.586;9.692;2023-04-24T02:05:50;11.90;82.30
13992;DHT22;7070;53.586;9.692;2023-04-24T02:08:16;11.90;82.10
13992;DHT22;7070;53.586;9.692;2023-04-24T02:10:43;11.90;81.90
13992;DHT22;7070;53.586;9.692;2023-04-24T02:13:10;11.80;81.60
13992;DHT22;7070;53.586;9.692;2023-04-24T02:15:38;11.80;81.40
13992;DHT22;7070;53.586;9.692;2023-04-24T02:18:05;11.80;81.30
13992;DHT22;7070;53.586;9.692;2023-04-24T02:20:32;11.70;81.00
13992;DHT22;7070;53.586;9.692;2023-04-24T02:23:01;11.60;80.80
13992;DHT22;7070;53.586;9.692;2023-04-24T02:25:27;11.50;80.70
13992;DHT22;7070;53.586;9.692;2023-04-24T02:27:54;11.40;80.70
13992;DHT22;7070;53.586;9.692;2023-04-24T02:30:21;11.30;80.60
13992;DHT22;7070;53.586;9.692;2023-04-24T02:32:49;11.20;80.50
13992;DHT22;7070;53.586;9.692;2023-04-24T02:35:17;11.10;80.70
13992;DHT22;7070;53.586;9.692;2023-04-24T02:37:44;11.10;80.80
13992;DHT22;7070;53.586;9.692;2023-04-24T02:40:11;11.00;80.70
13992;DHT22;7070;53.586;9.692;2023-04-24T02:42:38;10.80;80.50
13992;DHT22;7070;53.586;9.692;2023-04-24T02:45:06;10.80;80.70
13992;DHT22;7070;53.586;9.692;2023-04-24T02:47:33;10.70;80.70
13992;DHT22;7070;53.586;9.692;2023-04-24T02:50:01;10.70;80.80
13992;DHT22;7070;53.586;9.692;2023-04-24T02:52:28;10.60;80.90
13992;DHT22;7070;53.586;9.692;2023-04-24T02:54:55;10.50;80.90
13992;DHT22;7070;53.586;9.692;2023-04-24T02:57:22;10.50;81.00
13992;DHT22;7070;53.586;9.692;2023-04-24T02:59:49;10.50;81.00
13992;DHT22;7070;53.586;9.692;2023-04-24T03:02:15;10.30;80.80
13992;DHT22;7070;53.586;9.692;2023-04-24T03:04:42;10.30;80.80
13992;DHT22;7070;53.586;9.692;2023-04-24T03:07:12;12.50;83.70
13992;DHT22;7070;53.586;9.692;2023-04-24T03:09:39;10.20;80.90
13992;DHT22;7070;53.586;9.692;2023-04-24T03:12:08;10.10;80.90
13992;DHT22;7070;53.586;9.692;2023-04-24T03:14:34;10.10;81.10
13992;DHT22;7070;53.586;9.692;2023-04-24T03:17:01;10.00;81.00
13992;DHT22;7070;53.586;9.692;2023-04-24T03:19:28;10.00;81.20
13992;DHT22;7070;53.586;9.692;2023-04-24T03:21:55;10.00;81.30
13992;DHT22;7070;53.586;9.692;2023-04-24T03:24:23;9.90;82.30
13992;DHT22;7070;53.586;9.692;2023-04-24T03:26:53;9.90;82.40
13992;DHT22;7070;53.586;9.692;2023-04-24T03:29:21;9.90;82.50
13992;DHT22;7070;53.586;9.692;2023-04-24T03:31:48;9.90;82.60
13992;DHT22;7070;53.586;9.692;2023-04-24T03:34:15;9.80;82.50
13992;DHT22;7070;53.586;9.692;2023-04-24T03:36:42;9.80;82.60
13992;DHT22;7070;53.586;9.692;2023-04-24T03:39:08;9.80;82.70
13992;DHT22;7070;53.586;9.692;2023-04-24T03:41:37;9.70;82.70
13992;DHT22;7070;53.586;9.692;2023-04-24T03:44:03;9.60;82.70
13992;DHT22;7070;53.586;9.692;2023-04-24T03:46:30;9.70;82.80
13992;DHT22;7070;53.586;9.692;2023-04-24T03:48:57;9.70;82.90
13992;DHT22;7070;53.586;9.692;2023-04-24T03:51:24;9.70;83.70
13992;DHT22;7070;53.586;9.692;2023-04-24T03:53:53;9.60;83.10
13992;DHT22;7070;53.586;9.692;2023-04-24T03:56:20;9.70;83.40
13992;DHT22;7070;53.586;9.692;2023-04-24T03:58:48;9.70;83.60
13992;DHT22;7070;53.586;9.692;2023-04-24T04:01:15;9.70;83.60
13992;DHT22;7070;53.586;9.692;2023-04-24T04:03:42;9.70;84.40
13992;DHT22;7070;53.586;9.692;2023-04-24T04:06:09;9.80;83.70
13992;DHT22;7070;53.586;9.692;2023-04-24T04:08:38;9.80;83.60
13992;DHT22;7070;53.586;9.692;2023-04-24T04:11:05;9.80;84.30
13992;DHT22;7070;53.586;9.692;2023-04-24T04:13:32;9.90;83.60
13992;DHT22;7070;53.586;9.692;2023-04-24T04:16:00;9.80;83.50
13992;DHT22;7070;53.586;9.692;2023-04-24T04:18:27;9.90;83.40
13992;DHT22;7070;53.586;9.692;2023-04-24T04:20:54;9.80;83.30
13992;DHT22;7070;53.586;9.692;2023-04-24T04:23:22;9.80;83.20
13992;DHT22;7070;53.586;9.692;2023-04-24T04:25:49;9.80;83.40
13992;DHT22;7070;53.586;9.692;2023-04-24T04:28:17;9.80;84.10
13992;DHT22;7070;53.586;9.692;2023-04-24T04:30:46;9.80;83.50
13992;DHT22;7070;53.586;9.692;2023-04-24T04:33:15;9.80;83.60
13992;DHT22;7070;53.586;9.692;2023-04-24T04:35:41;9.80;83.70
13992;DHT22;7070;53.586;9.692;2023-04-24T04:38:09;9.90;84.00
13992;DHT22;7070;53.586;9.692;2023-04-24T04:40:36;10.00;83.00
13992;DHT22;7070;53.586;9.692;2023-04-24T04:43:03;10.10;83.20
13992;DHT22;7070;53.586;9.692;2023-04-24T04:45:30;10.10;83.30
13992;DHT22;7070;53.586;9.692;2023-04-24T04:47:58;10.50;83.60
13992;DHT22;7070;53.586;9.692;2023-04-24T04:50:27;10.40;83.40
13992;DHT22;7070;53.586;9.692;2023-04-24T04:52:54;10.60;83.40
13992;DHT22;7070;53.586;9.692;2023-04-24T04:55:21;10.70;83.30
13992;DHT22;7070;53.586;9.692;2023-04-24T04:57:48;10.70;83.10
13992;DHT22;7070;53.586;9.692;2023-04-24T05:00:15;10.90;83.00
13992;DHT22;7070;53.586;9.692;2023-04-24T05:02:42;11.00;82.90
13992;DHT22;7070;53.586;9.692;2023-04-24T05:05:10;11.10;82.60
13992;DHT22;7070;53.586;9.692;2023-04-24T05:07:38;11.30;82.50
13992;DHT22;7070;53.586;9.692;2023-04-24T05:10:06;11.40;82.30
13992;DHT22;7070;53.586;9.692;2023-04-24T05:12:33;11.50;82.20
13992;DHT22;7070;53.586;9.692;2023-04-24T05:14:59;11.70;82.10
13992;DHT22;7070;53.586;9.692;2023-04-24T05:17:26;11.70;81.90
13992;DHT22;7070;53.586;9.692;2023-04-24T05:19:54;11.90;81.80
13992;DHT22;7070;53.586;9.692;2023-04-24T05:22:20;12.00;81.40
13992;DHT22;7070;53.586;9.692;2023-04-24T05:24:49;12.20;81.20
13992;DHT22;7070;53.586;9.692;2023-04-24T05:27:16;12.30;80.80
13992;DHT22;7070;53.586;9.692;2023-04-24T05:29:43;12.40;80.40
13992;DHT22;7070;53.586;9.692;2023-04-24T05:32:10;12.50;80.00
13992;DHT22;7070;53.586;9.692;2023-04-24T05:34:37;12.60;79.80
13992;DHT22;7070;53.586;9.692;2023-04-24T05:37:04;12.70;79.60
13992;DHT22;7070;53.586;9.692;2023-04-24T05:39:33;12.70;79.30
13992;DHT22;7070;53.586;9.692;2023-04-24T05:42:02;12.80;79.20
13992;DHT22;7070;53.586;9.692;2023-04-24T05:44:30;12.90;79.00
13992;DHT22;7070;53.586;9.692;2023-04-24T05:46:57;13.00;78.90
13992;DHT22;7070;53.586;9.692;2023-04-24T05:49:24;13.00;78.70
13992;DHT22;7070;53.586;9.692;2023-04-24T05:51:51;13.10;78.60
13992;DHT22;7070;53.586;9.692;2023-04-24T05:54:18;13.20;78.60
13992;DHT22;7070;53.586;9.692;2023-04-24T05:56:45;13.40;78.50
13992;DHT22;7070;53.586;9.692;2023-04-24T05:59:13;13.50;78.00
13992;DHT22;7070;53.586;9.692;2023-04-24T06:01:40;13.60;77.80
13992;DHT22;7070;53.586;9.692;2023-04-24T06:04:10;13.70;77.80
13992;DHT22;7070;53.586;9.692;2023-04-24T06:06:36;13.80;77.70
13992;DHT22;7070;53.586;9.692;2023-04-24T06:09:03;14.00;77.60
13992;DHT22;7070;53.586;9.692;2023-04-24T06:11:30;14.10;77.40
13992;DHT22;7070;53.586;9.692;2023-04-24T06:13:57;14.20;77.00
13992;DHT22;7070;53.586;9.692;2023-04-24T06:16:26;14.40;76.70
13992;DHT22;7070;53.586;9.692;2023-04-24T06:18:52;14.60;76.40
13992;DHT22;7070;53.586;9.692;2023-04-24T06:21:20;14.70;76.20
13992;DHT22;7070;53.586;9.692;2023-04-24T06:23:47;14.80;75.80
13992;DHT22;7070;53.586;9.692;2023-04-24T06:26:15;14.90;75.30
13992;DHT22;7070;53.586;9.692;2023-04-24T06:28:42;15.00;75.20
13992;DHT22;7070;53.586;9.692;2023-04-24T06:31:08;15.00;75.00
13992;DHT22;7070;53.586;9.692;2023-04-24T06:33:37;15.10;75.10
13992;DHT22;7070;53.586;9.692;2023-04-24T06:36:04;15.20;75.00
13992;DHT22;7070;53.586;9.692;2023-04-24T06:38:31;15.30;74.90
13992;DHT22;7070;53.586;9.692;2023-04-24T06:40:58;15.50;74.70
13992;DHT22;7070;53.586;9.692;2023-04-24T06:43:25;15.60;74.00
13992;DHT22;7070;53.586;9.692;2023-04-24T06:45:52;15.60;73.50
13992;DHT22;7070;53.586;9.692;2023-04-24T06:48:19;15.70;73.40
13992;DHT22;7070;53.586;9.692;2023-04-24T06:50:47;15.70;73.20
13992;DHT22;7070;53.586;9.692;2023-04-24T06:53:14;15.70;73.00
13992;DHT22;7070;53.586;9.692;2023-04-24T06:55:41;15.70;72.70
13992;DHT22;7070;53.586;9.692;2023-04-24T06:58:08;15.80;72.60
13992;DHT22;7070;53.586;9.692;2023-04-24T07:00:35;15.70;72.60
13992;DHT22;7070;53.586;9.692;2023-04-24T07:03:02;15.70;72.20
13992;DHT22;7070;53.586;9.692;2023-04-24T07:05:30;15.80;72.00
13992;DHT22;7070;53.586;9.692;2023-04-24T07:08:01;15.80;71.60
13992;DHT22;7070;53.586;9.692;2023-04-24T07:10:28;15.70;71.20
13992;DHT22;7070;53.586;9.692;2023-04-24T07:12:54;15.60;70.90
13992;DHT22;7070;53.586;9.692;2023-04-24T07:15:22;15.50;71.00
13992;DHT22;7070;53.586;9.692;2023-04-24T07:17:48;15.50;71.50
13992;DHT22;7070;53.586;9.692;2023-04-24T07:20:16;15.40;71.50
13992;DHT22;7070;53.586;9.692;2023-04-24T07:22:43;15.30;71.90
13992;DHT22;7070;53.586;9.692;2023-04-24T07:25:11;15.40;72.50
13992;DHT22;7070;53.586;9.692;2023-04-24T07:27:38;15.50;72.90
13992;DHT22;7070;53.586;9.692;2023-04-24T07:30:06;15.60;73.00
13992;DHT22;7070;53.586;9.692;2023-04-24T07:32:33;15.80;72.90
13992;DHT22;7070;53.586;9.692;2023-04-24T07:35:00;15.90;72.60
13992;DHT22;7070;53.586;9.692;2023-04-24T07:37:28;15.90;72.00
13992;DHT22;7070;53.586;9.692;2023-04-24T07:39:55;16.00;71.70
13992;DHT22;7070;53.586;9.692;2023-04-24T07:42:23;16.00;71.00
13992;DHT22;7070;53.586;9.692;2023-04-24T07:44:50;16.00;70.50
13992;DHT22;7070;53.586;9.692;2023-04-24T07:47:17;15.90;70.30
13992;DHT22;7070;53.586;9.692;2023-04-24T07:49:44;15.80;70.10
13992;DHT22;7070;53.586;9.692;2023-04-24T07:52:12;15.70;70.10
13992;DHT22;7070;53.586;9.692;2023-04-24T07:54:39;15.60;70.10
13992;DHT22;7070;53.586;9.692;2023-04-24T07:57:06;15.50;70.30
13992;DHT22;7070;53.586;9.692;2023-04-24T07:59:35;15.40;70.40
13992;DHT22;7070;53.586;9.692;2023-04-24T08:02:01;15.40;70.30
13992;DHT22;7070;53.586;9.692;2023-04-24T08:04:28;15.40;70.20
13992;DHT22;7070;53.586;9.692;2023-04-24T08:06:55;15.30;70.00
13992;DHT22;7070;53.586;9.692;2023-04-24T08:09:22;15.20;70.00
13992;DHT22;7070;53.586;9.692;2023-04-24T08:11:49;15.10;70.20
13992;DHT22;7070;53.586;9.692;2023-04-24T08:14:16;15.10;70.60
13992;DHT22;7070;53.586;9.692;2023-04-24T08:16:44;15.00;70.80
13992;DHT22;7070;53.586;9.692;2023-04-24T08:19:11;15.00;70.80
13992;DHT22;7070;53.586;9.692;2023-04-24T08:21:38;15.00;70.70
13992;DHT22;7070;53.586;9.692;2023-04-24T08:24:05;15.00;70.70
13992;DHT22;7070;53.586;9.692;2023-04-24T08:26:33;15.10;70.70
13992;DHT22;7070;53.586;9.692;2023-04-24T08:29:00;15.00;70.60
13992;DHT22;7070;53.586;9.692;2023-04-24T08:31:27;14.90;70.50
13992;DHT22;7070;53.586;9.692;2023-04-24T08:33:55;14.90;70.70
13992;DHT22;7070;53.586;9.692;2023-04-24T08:36:22;14.90;70.80
13992;DHT22;7070;53.586;9.692;2023-04-24T08:38:49;14.90;70.80
13992;DHT22;7070;53.586;9.692;2023-04-24T08:41:17;14.90;70.70
13992;DHT22;7070;53.586;9.692;2023-04-24T08:43:46;14.90;70.90
13992;DHT22;7070;53.586;9.692;2023-04-24T08:46:13;14.90;71.00
13992;DHT22;7070;53.586;9.692;2023-04-24T08:48:40;14.90;71.20
13992;DHT22;7070;53.586;9.692;2023-04-24T08:51:08;14.90;71.20
13992;DHT22;7070;53.586;9.692;2023-04-24T08:53:36;15.00;71.10
13992;DHT22;7070;53.586;9.692;2023-04-24T08:56:03;15.00;71.20
13992;DHT22;7070;53.586;9.692;2023-04-24T08:58:31;15.00;71.20
13992;DHT22;7070;53.586;9.692;2023-04-24T09:00:59;15.10;71.30
13992;DHT22;7070;53.586;9.692;2023-04-24T09:03:27;15.10;71.30
13992;DHT22;7070;53.586;9.692;2023-04-24T09:05:55;15.20;71.50
13992;DHT22;7070;53.586;9.692;2023-04-24T09:08:26;15.30;71.40
13992;DHT22;7070;53.586;9.692;2023-04-24T09:10:54;15.40;71.40
13992;DHT22;7070;53.586;9.692;2023-04-24T09:13:24;15.50;71.10
13992;DHT22;7070;53.586;9.692;2023-04-24T09:15:51;15.60;71.00
13992;DHT22;7070;53.586;9.692;2023-04-24T09:18:18;15.60;70.70
13992;DHT22;7070;53.586;9.692;2023-04-24T09:20:58;15.70;70.50
13992;DHT22;7070;53.586;9.692;2023-04-24T09:23:28;15.80;70.70
13992;DHT22;7070;53.586;9.692;2023-04-24T09:25:55;15.80;71.00
13992;DHT22;7070;53.586;9.692;2023-04-24T09:28:25;15.90;70.00
13992;DHT22;7070;53.586;9.692;2023-04-24T09:31:02;15.80;69.80
13992;DHT22;7070;53.586;9.692;2023-04-24T09:33:29;15.80;69.70
13992;DHT22;7070;53.586;9.692;2023-04-24T09:35:56;15.70;69.50
13992;DHT22;7070;53.586;9.692;2023-04-24T09:38:32;15.60;69.50
13992;DHT22;7070;53.586;9.692;2023-04-24T09:41:00;15.50;69.60
13992;DHT22;7070;53.586;9.692;2023-04-24T09:43:28;15.50;69.70
13992;DHT22;7070;53.586;9.692;2023-04-24T09:45:56;15.40;69.70
13992;DHT22;7070;53.586;9.692;2023-04-24T09:48:31;15.40;70.00
13992;DHT22;7070;53.586;9.692;2023-04-24T09:50:58;15.40;70.10
13992;DHT22;7070;53.586;9.692;2023-04-24T09:53:26;15.40;69.80
13992;DHT22;7070;53.586;9.692;2023-04-24T09:55:55;15.30;69.70
13992;DHT22;7070;53.586;9.692;2023-04-24T09:58:25;15.30;69.70
13992;DHT22;7070;53.586;9.692;2023-04-24T10:00:56;15.50;70.10
13992;DHT22;7070;53.586;9.692;2023-04-24T10:03:24;15.40;70.20
13992;DHT22;7070;53.586;9.692;2023-04-24T10:05:52;15.50;70.30
13992;DHT22;7070;53.586;9.692;2023-04-24T10:08:20;15.50;70.20
13992;DHT22;7070;53.586;9.692;2023-04-24T10:10:47;15.60;70.00
13992;DHT22;7070;53.586;9.692;2023-04-24T10:13:15;15.70;69.80
13992;DHT22;7070;53.586;9.692;2023-04-24T10:15:43;15.70;69.60
13992;DHT22;7070;53.586;9.692;2023-04-24T10:18:10;15.80;69.70
13992;DHT22;7070;53.586;9.692;2023-04-24T10:20:39;15.80;70.20
13992;DHT22;7070;53.586;9.692;2023-04-24T10:23:06;15.90;70.50
13992;DHT22;7070;53.586;9.692;2023-04-24T10:25:35;16.00;70.20
13992;DHT22;7070;53.586;9.692;2023-04-24T10:28:03;16.20;69.70
13992;DHT22;7070;53.586;9.692;2023-04-24T10:30:33;16.30;69.20
13992;DHT22;7070;53.586;9.692;2023-04-24T10:33:01;16.30;68.90
13992;DHT22;7070;53.586;9.692;2023-04-24T10:35:31;16.30;68.70
13992;DHT22;7070;53.586;9.692;2023-04-24T10:38:01;16.30;68.70
13992;DHT22;7070;53.586;9.692;2023-04-24T10:40:31;16.20;68.40
13992;DHT22;7070;53.586;9.692;2023-04-24T10:42:59;16.20;68.30
13992;DHT22;7070;53.586;9.692;2023-04-24T10:45:26;16.10;67.90
13992;DHT22;7070;53.586;9.692;2023-04-24T10:48:04;16.00;67.60
13992;DHT22;7070;53.586;9.692;2023-04-24T10:50:44;15.80;67.80
13992;DHT22;7070;53.586;9.692;2023-04-24T10:53:17;15.70;68.20
13992;DHT22;7070;53.586;9.692;2023-04-24T10:55:46;15.60;68.30
13992;DHT22;7070;53.586;9.692;2023-04-24T10:58:13;15.60;68.30
13992;DHT22;7070;53.586;9.692;2023-04-24T11:00:42;15.50;68.10
13992;DHT22;7070;53.586;9.692;2023-04-24T11:03:25;15.50;68.10
13992;DHT22;7070;53.586;9.692;2023-04-24T11:05:58;15.50;68.20
13992;DHT22;7070;53.586;9.692;2023-04-24T11:08:26;15.40;68.20
13992;DHT22;7070;53.586;9.692;2023-04-24T11:11:01;15.40;68.30
13992;DHT22;7070;53.586;9.692;2023-04-24T11:16:31;15.40;69.00
13992;DHT22;7070;53.586;9.692;2023-04-24T11:19:05;15.50;69.00
13992;DHT22;7070;53.586;9.692;2023-04-24T11:21:39;15.50;69.10
13992;DHT22;7070;53.586;9.692;2023-04-24T11:24:28;15.70;69.20
13992;DHT22;7070;53.586;9.692;2023-04-24T11:26:57;15.80;69.10
13992;DHT22;7070;53.586;9.692;2023-04-24T11:29:39;16.00;68.70
13992;DHT22;7070;53.586;9.692;2023-04-24T11:32:25;16.00;68.40
13992;DHT22;7070;53.586;9.692;2023-04-24T11:34:55;16.10;68.40
13992;DHT22;7070;53.586;9.692;2023-04-24T11:37:22;16.10;68.10
13992;DHT22;7070;53.586;9.692;2023-04-24T11:39:51;16.20;68.20
13992;DHT22;7070;53.586;9.692;2023-04-24T11:42:20;16.20;68.00
13992;DHT22;7070;53.586;9.692;2023-04-24T11:44:48;16.30;68.00
13992;DHT22;7070;53.586;9.692;2023-04-24T11:47:15;16.30;67.80
13992;DHT22;7070;53.586;9.692;2023-04-24T11:49:42;16.30;67.70
13992;DHT22;7070;53.586;9.692;2023-04-24T11:52:10;16.20;68.20
13992;DHT22;7070;53.586;9.692;2023-04-24T11:54:37;16.30;67.10
13992;DHT22;7070;53.586;9.692;2023-04-24T11:57:06;16.20;66.50
13992;DHT22;7070;53.586;9.692;2023-04-24T11:59:36;16.10;66.30
13992;DHT22;7070;53.586;9.692;2023-04-24T12:02:03;16.00;67.30
13992;DHT22;7070;53.586;9.692;2023-04-24T12:04:38;16.00;66.70
13992;DHT22;7070;53.586;9.692;2023-04-24T12:07:06;16.00;67.00
13992;DHT22;7070;53.586;9.692;2023-04-24T12:09:42;15.90;67.80
13992;DHT22;7070;53.586;9.692;2023-04-24T12:12:10;15.90;67.30
13992;DHT22;7070;53.586;9.692;2023-04-24T12:14:52;16.00;67.40
13992;DHT22;7070;53.586;9.692;2023-04-24T12:17:24;16.10;67.70
13992;DHT22;7070;53.586;9.692;2023-04-24T12:19:51;16.20;67.70
13992;DHT22;7070;53.586;9.692;2023-04-24T12:22:19;16.20;67.30
13992;DHT22;7070;53.586;9.692;2023-04-24T12:25:00;16.30;67.30
13992;DHT22;7070;53.586;9.692;2023-04-24T12:27:30;16.30;67.60
13992;DHT22;7070;53.586;9.692;2023-04-24T12:29:59;16.30;67.20
13992;DHT22;7070;53.586;9.692;2023-04-24T12:32:27;16.30;67.10
13992;DHT22;7070;53.586;9.692;2023-04-24T12:34:54;16.20;67.00
13992;DHT22;7070;53.586;9.692;2023-04-24T12:37:23;16.10;67.00
13992;DHT22;7070;53.586;9.692;2023-04-24T12:40:02;16.10;67.20
13992;DHT22;7070;53.586;9.692;2023-04-24T12:42:30;16.10;68.20
13992;DHT22;7070;53.586;9.692;2023-04-24T12:44:57;16.10;67.40
13992;DHT22;7070;53.586;9.692;2023-04-24T12:47:25;16.20;67.50
13992;DHT22;7070;53.586;9.692;2023-04-24T12:49:52;16.10;67.50
13992;DHT22;7070;53.586;9.692;2023-04-24T12:52:21;16.20;67.40
13992;DHT22;7070;53.586;9.692;2023-04-24T12:54:48;16.10;67.10
13992;DHT22;7070;53.586;9.692;2023-04-24T12:57:16;16.10;67.00
13992;DHT22;7070;53.586;9.692;2023-04-24T12:59:43;16.00;67.00
13992;DHT22;7070;53.586;9.692;2023-04-24T13:02:10;15.90;67.00
13992;DHT22;7070;53.586;9.692;2023-04-24T13:04:37;15.80;67.30
13992;DHT22;7070;53.586;9.692;2023-04-24T13:07:05;15.60;67.60
13992;DHT22;7070;53.586;9.692;2023-04-24T13:09:31;15.50;68.10
13992;DHT22;7070;53.586;9.692;2023-04-24T13:11:59;15.40;68.40
13992;DHT22;7070;53.586;9.692;2023-04-24T13:14:27;15.20;68.70
13992;DHT22;7070;53.586;9.692;2023-04-24T13:16:54;15.10;69.20
13992;DHT22;7070;53.586;9.692;2023-04-24T13:19:23;15.00;69.50
13992;DHT22;7070;53.586;9.692;2023-04-24T13:21:50;14.90;69.80
13992;DHT22;7070;53.586;9.692;2023-04-24T13:24:17;14.80;70.20
13992;DHT22;7070;53.586;9.692;2023-04-24T13:26:44;14.70;70.50
13992;DHT22;7070;53.586;9.692;2023-04-24T13:29:11;14.70;70.90
13992;DHT22;7070;53.586;9.692;2023-04-24T13:31:39;14.60;71.10
13992;DHT22;7070;53.586;9.692;2023-04-24T13:34:06;14.60;71.30
13992;DHT22;7070;53.586;9.692;2023-04-24T13:36:33;14.60;71.40
13992;DHT22;7070;53.586;9.692;2023-04-24T13:39:00;14.60;71.60
13992;DHT22;7070;53.586;9.692;2023-04-24T13:41:28;14.50;72.30
13992;DHT22;7070;53.586;9.692;2023-04-24T13:43:55;14.50;72.60
13992;DHT22;7070;53.586;9.692;2023-04-24T13:46:22;14.60;71.90
13992;DHT22;7070;53.586;9.692;2023-04-24T13:48:50;14.60;71.90
13992;DHT22;7070;53.586;9.692;2023-04-24T13:51:18;14.60;71.70
13992;DHT22;7070;53.586;9.692;2023-04-24T13:53:44;14.50;71.60
13992;DHT22;7070;53.586;9.692;2023-04-24T13:56:11;14.60;71.60
13992;DHT22;7070;53.586;9.692;2023-04-24T13:58:39;14.50;71.50
13992;DHT22;7070;53.586;9.692;2023-04-24T14:01:06;14.50;71.50
13992;DHT22;7070;53.586;9.692;2023-04-24T14:03:33;14.40;72.10
13992;DHT22;7070;53.586;9.692;2023-04-24T14:06:02;14.40;71.40
13992;DHT22;7070;53.586;9.692;2023-04-24T14:08:28;14.30;71.40
13992;DHT22;7070;53.586;9.692;2023-04-24T14:10:55;14.30;71.50
13992;DHT22;7070;53.586;9.692;2023-04-24T14:13:22;14.30;71.60
13992;DHT22;7070;53.586;9.692;2023-04-24T14:15:49;14.20;71.70
13992;DHT22;7070;53.586;9.692;2023-04-24T14:18:18;14.20;72.00
13992;DHT22;7070;53.586;9.692;2023-04-24T14:20:44;14.10;72.20
13992;DHT22;7070;53.586;9.692;2023-04-24T14:23:13;14.00;72.30
13992;DHT22;7070;53.586;9.692;2023-04-24T14:25:40;14.00;72.60
13992;DHT22;7070;53.586;9.692;2023-04-24T14:28:07;13.90;73.40
13992;DHT22;7070;53.586;9.692;2023-04-24T14:30:34;13.90;72.90
13992;DHT22;7070;53.586;9.692;2023-04-24T14:33:03;13.90;73.10
13992;DHT22;7070;53.586;9.692;2023-04-24T14:35:29;13.80;73.30
13992;DHT22;7070;53.586;9.692;2023-04-24T14:37:59;13.80;73.70
13992;DHT22;7070;53.586;9.692;2023-04-24T14:40:27;13.80;73.80
13992;DHT22;7070;53.586;9.692;2023-04-24T14:42:55;13.80;74.10
13992;DHT22;7070;53.586;9.692;2023-04-24T14:45:23;13.80;74.30
13992;DHT22;7070;53.586;9.692;2023-04-24T14:47:50;13.80;74.50
13992;DHT22;7070;53.586;9.692;2023-04-24T14:50:17;13.80;74.50
13992;DHT22;7070;53.586;9.692;2023-04-24T14:52:44;13.80;74.50
13992;DHT22;7070;53.586;9.692;2023-04-24T14:55:11;13.70;74.10
13992;DHT22;7070;53.586;9.692;2023-04-24T14:57:39;13.70;73.90
13992;DHT22;7070;53.586;9.692;2023-04-24T15:00:07;13.60;73.70
13992;DHT22;7070;53.586;9.692;2023-04-24T15:02:35;13.40;73.50
13992;DHT22;7070;53.586;9.692;2023-04-24T15:05:06;13.30;73.70
13992;DHT22;7070;53.586;9.692;2023-04-24T15:07:33;13.10;73.60
13992;DHT22;7070;53.586;9.692;2023-04-24T15:10:01;13.00;73.70
13992;DHT22;7070;53.586;9.692;2023-04-24T15:12:28;12.80;73.90
13992;DHT22;7070;53.586;9.692;2023-04-24T15:14:57;12.70;74.10
13992;DHT22;7070;53.586;9.692;2023-04-24T15:17:24;12.50;74.00
13992;DHT22;7070;53.586;9.692;2023-04-24T15:19:51;12.40;74.20
13992;DHT22;7070;53.586;9.692;2023-04-24T15:22:18;12.30;74.40
13992;DHT22;7070;53.586;9.692;2023-04-24T15:24:45;12.20;74.50
13992;DHT22;7070;53.586;9.692;2023-04-24T15:27:12;12.10;74.80
13992;DHT22;7070;53.586;9.692;2023-04-24T15:29:39;12.00;75.00
13992;DHT22;7070;53.586;9.692;2023-04-24T15:32:07;12.00;75.20
13992;DHT22;7070;53.586;9.692;2023-04-24T15:34:34;11.90;75.40
13992;DHT22;7070;53.586;9.692;2023-04-24T15:37:01;11.80;75.40
13992;DHT22;7070;53.586;9.692;2023-04-24T15:39:27;11.70;75.50
13992;DHT22;7070;53.586;9.692;2023-04-24T15:41:54;11.60;75.50
13992;DHT22;7070;53.586;9.692;2023-04-24T15:44:22;11.50;75.40
13992;DHT22;7070;53.586;9.692;2023-04-24T15:46:49;11.40;76.20
13992;DHT22;7070;53.586;9.692;2023-04-24T15:49:18;11.30;75.50
13992;DHT22;7070;53.586;9.692;2023-04-24T15:51:45;11.20;75.60
13992;DHT22;7070;53.586;9.692;2023-04-24T15:54:12;11.10;75.50